createdAt,value
2018-07-20T00:02:09.015Z,2.23
2018-07-20T00:04:37.091Z,2.27
2018-07-20T00:07:05.406Z,1.97
2018-07-20T00:09:33.493Z,1.03
2018-07-20T00:12:01.595Z,2.57
2018-07-20T00:14:29.662Z,2.03
2018-07-20T00:16:57.756Z,2.60
2018-07-20T00:19:25.818Z,3.40
2018-07-20T00:21:53.916Z,2.87
2018-07-20T00:24:21.991Z,4.87
2018-07-20T00:26:49.938Z,1.20
2018-07-20T00:29:18.007Z,2.67
2018-07-20T00:31:46.103Z,3.03
2018-07-20T00:34:14.216Z,4.53
2018-07-20T00:36:42.285Z,3.17
2018-07-20T00:39:11.236Z,2.37
2018-07-20T00:41:39.705Z,1.50
2018-07-20T00:44:07.787Z,1.50
2018-07-20T00:46:35.896Z,3.57
2018-07-20T00:49:03.960Z,2.10
2018-07-20T00:51:32.040Z,2.93
2018-07-20T00:54:00.114Z,2.93
2018-07-20T00:56:28.175Z,2.17
2018-07-20T00:58:56.256Z,1.73
2018-07-20T01:01:24.424Z,1.53
2018-07-20T01:03:52.488Z,2.80
2018-07-20T01:06:20.557Z,0.83
2018-07-20T01:08:48.735Z,2.00
2018-07-20T01:11:16.914Z,1.80
2018-07-20T01:13:44.999Z,1.80
2018-07-20T01:16:13.054Z,1.70
2018-07-20T01:18:41.136Z,1.20
2018-07-20T01:21:09.204Z,3.10
2018-07-20T01:23:37.275Z,1.70
2018-07-20T01:26:05.360Z,2.43
2018-07-20T01:28:33.707Z,1.20
2018-07-20T01:31:01.776Z,2.50
2018-07-20T01:33:29.858Z,1.80
2018-07-20T01:35:57.930Z,3.50
2018-07-20T01:38:26.091Z,1.17
2018-07-20T01:40:54.150Z,2.23
2018-07-20T01:43:22.219Z,2.17
2018-07-20T01:45:50.291Z,2.70
2018-07-20T01:48:18.371Z,1.80
2018-07-20T01:50:46.430Z,1.57
2018-07-20T01:53:14.614Z,1.37
2018-07-20T01:55:42.679Z,1.47
2018-07-20T01:58:10.738Z,2.53
2018-07-20T02:00:38.814Z,3.73
2018-07-20T02:03:07.551Z,2.93
2018-07-20T02:05:35.650Z,0.97
2018-07-20T02:08:03.743Z,2.03
2018-07-20T02:10:31.823Z,1.77
2018-07-20T02:13:00.044Z,3.40
2018-07-20T02:15:28.122Z,1.90
2018-07-20T02:17:56.202Z,1.73
2018-07-20T02:20:24.690Z,1.30
2018-07-20T02:22:52.790Z,1.57
2018-07-20T02:25:20.870Z,1.57
2018-07-20T02:27:48.946Z,3.80
2018-07-20T02:30:17.106Z,2.37
2018-07-20T02:32:45.168Z,2.30
2018-07-20T02:35:13.346Z,2.03
2018-07-20T02:37:41.410Z,1.97
2018-07-20T02:40:09.479Z,1.77
2018-07-20T02:42:37.551Z,1.87
2018-07-20T02:45:05.941Z,1.87
2018-07-20T02:47:34.028Z,1.60
2018-07-20T02:50:02.105Z,2.37
2018-07-20T02:52:30.163Z,2.00
2018-07-20T02:54:58.242Z,2.00
2018-07-20T02:57:26.307Z,1.43
2018-07-20T02:59:54.659Z,3.37
2018-07-20T03:02:22.836Z,1.53
2018-07-20T03:04:50.923Z,2.17
2018-07-20T03:07:19.059Z,2.23
2018-07-20T03:09:47.159Z,2.60
2018-07-20T03:12:15.215Z,1.97
2018-07-20T03:14:43.290Z,1.20
2018-07-20T03:17:11.542Z,2.87
2018-07-20T03:19:39.625Z,2.07
2018-07-20T03:22:07.691Z,1.43
2018-07-20T03:24:35.791Z,2.53
2018-07-20T03:27:03.871Z,3.07
2018-07-20T03:29:31.947Z,1.90
2018-07-20T03:32:00.131Z,2.47
2018-07-20T03:34:28.202Z,3.60
2018-07-20T03:36:56.288Z,2.43
2018-07-20T03:39:24.342Z,2.83
2018-07-20T03:41:52.435Z,2.70
2018-07-20T03:44:20.306Z,2.63
2018-07-20T03:46:48.378Z,3.20
2018-07-20T03:49:16.440Z,1.67
2018-07-20T03:51:44.507Z,2.87
2018-07-20T03:54:12.563Z,2.40
2018-07-20T03:56:40.658Z,1.20
2018-07-20T03:59:08.746Z,1.60
2018-07-20T04:01:36.879Z,3.53
2018-07-20T04:04:04.971Z,2.80
2018-07-20T04:06:33.063Z,1.90
2018-07-20T04:09:01.135Z,1.47
2018-07-20T04:11:29.226Z,2.53
2018-07-20T04:13:57.318Z,2.17
2018-07-20T04:16:25.382Z,0.80
2018-07-20T04:18:53.695Z,1.33
2018-07-20T04:21:21.789Z,1.83
2018-07-20T04:23:49.867Z,3.27
2018-07-20T04:26:17.930Z,2.83
2018-07-20T04:28:46.006Z,1.33
2018-07-20T04:31:14.084Z,1.73
2018-07-20T04:33:42.142Z,2.60
2018-07-20T04:36:10.214Z,2.83
2018-07-20T04:38:38.294Z,2.63
2018-07-20T04:41:06.539Z,1.20
2018-07-20T04:43:34.607Z,3.13
2018-07-20T04:46:02.734Z,1.30
2018-07-20T04:48:30.899Z,2.53
2018-07-20T04:50:59.007Z,1.87
2018-07-20T04:53:27.478Z,3.07
2018-07-20T04:55:55.582Z,3.60
2018-07-20T04:58:23.651Z,4.67
2018-07-20T05:00:51.751Z,2.03
2018-07-20T05:03:19.847Z,1.73
2018-07-20T05:05:48.058Z,1.27
2018-07-20T05:08:16.070Z,3.20
2018-07-20T05:10:44.162Z,1.53
2018-07-20T05:13:12.243Z,1.37
2018-07-20T05:15:40.333Z,1.67
2018-07-20T05:18:08.390Z,2.67
2018-07-20T05:20:36.531Z,1.43
2018-07-20T05:23:05.062Z,2.27
2018-07-20T05:25:33.136Z,1.83
2018-07-20T05:28:01.291Z,2.13
2018-07-20T05:30:29.398Z,2.13
2018-07-20T05:32:57.529Z,3.20
2018-07-20T05:35:25.657Z,1.87
2018-07-20T05:37:53.724Z,4.23
2018-07-20T05:40:21.782Z,2.23
2018-07-20T05:42:49.870Z,2.47
2018-07-20T05:45:18.199Z,2.30
2018-07-20T05:47:46.313Z,3.40
2018-07-20T05:50:14.371Z,3.33
2018-07-20T05:52:42.453Z,4.33
2018-07-20T05:55:10.546Z,2.83
2018-07-20T05:57:38.648Z,4.67
2018-07-20T06:00:06.733Z,5.27
2018-07-20T06:02:34.891Z,4.70
2018-07-20T06:05:02.982Z,7.10
2018-07-20T06:07:31.407Z,4.30
2018-07-20T06:09:59.487Z,2.47
2018-07-20T06:12:27.570Z,5.17
2018-07-20T06:14:55.678Z,5.17
2018-07-20T06:17:23.763Z,4.27
2018-07-20T06:19:51.831Z,3.27
2018-07-20T06:22:19.915Z,4.43
2018-07-20T06:24:47.986Z,4.10
2018-07-20T06:27:16.065Z,2.77
2018-07-20T06:29:44.577Z,4.13
2018-07-20T06:32:12.854Z,4.03
2018-07-20T06:34:40.927Z,3.47
2018-07-20T06:37:09.011Z,4.97
2018-07-20T06:39:37.074Z,2.83
2018-07-20T06:42:05.254Z,3.70
2018-07-20T06:44:33.862Z,6.33
2018-07-20T06:47:01.934Z,11.00
2018-07-20T06:49:30.178Z,4.57
2018-07-20T06:51:58.242Z,6.27
2018-07-20T06:54:26.314Z,12.93
2018-07-20T06:56:54.387Z,8.93
2018-07-20T06:59:22.962Z,6.93
2018-07-20T07:01:51.070Z,6.43
2018-07-20T07:04:19.182Z,5.20
2018-07-20T07:06:47.283Z,5.60
2018-07-20T07:09:15.350Z,5.30
2018-07-20T07:11:43.419Z,6.40
2018-07-20T07:14:11.499Z,3.60
2018-07-20T07:16:39.599Z,4.43
2018-07-20T07:19:07.673Z,2.23
2018-07-20T07:21:35.768Z,6.20
2018-07-20T07:24:03.871Z,4.17
2018-07-20T07:26:32.259Z,4.87
2018-07-20T07:29:00.331Z,7.27
2018-07-20T07:31:28.395Z,4.53
2018-07-20T07:33:56.531Z,4.17
2018-07-20T07:36:24.618Z,2.67
2018-07-20T07:38:52.690Z,2.47
2018-07-20T07:41:20.779Z,2.70
2018-07-20T07:43:48.891Z,5.07
2018-07-20T07:46:17.063Z,8.63
2018-07-20T07:48:45.142Z,4.03
2018-07-20T07:51:13.215Z,2.37
2018-07-20T07:53:41.394Z,1.63
2018-07-20T07:56:09.569Z,4.57
2018-07-20T07:58:37.911Z,1.97
2018-07-20T08:01:06.240Z,1.73
2018-07-20T08:03:34.435Z,2.83
2018-07-20T08:06:02.755Z,5.07
2018-07-20T08:08:30.830Z,2.90
2018-07-20T08:10:58.950Z,4.47
2018-07-20T08:13:27.038Z,3.47
2018-07-20T08:15:55.166Z,2.37
2018-07-20T08:18:23.522Z,4.93
2018-07-20T08:20:51.612Z,3.60
2018-07-20T08:23:19.795Z,2.67
2018-07-20T08:25:47.871Z,5.57
2018-07-20T08:28:15.963Z,2.67
2018-07-20T08:30:44.014Z,4.40
2018-07-20T08:33:12.144Z,2.53
2018-07-20T08:35:40.213Z,1.90
2018-07-20T08:38:08.299Z,1.57
2018-07-20T08:40:36.387Z,1.30
2018-07-20T08:43:04.469Z,1.63
2018-07-20T08:45:32.551Z,1.57
2018-07-20T08:48:00.625Z,0.90
2018-07-20T08:50:28.702Z,2.37
2018-07-20T08:52:56.788Z,2.97
2018-07-20T08:55:24.867Z,3.20
2018-07-20T08:57:52.954Z,2.20
2018-07-20T09:00:21.023Z,6.73
2018-07-20T09:02:49.099Z,8.93
2018-07-20T09:05:17.171Z,6.83
2018-07-20T09:07:45.266Z,11.77
2018-07-20T09:10:13.372Z,8.47
2018-07-20T09:12:41.435Z,6.77
2018-07-20T09:15:09.515Z,4.33
2018-07-20T09:17:37.875Z,5.30
2018-07-20T09:20:05.957Z,4.73
2018-07-20T09:22:34.059Z,6.07
2018-07-20T09:25:02.119Z,2.20
2018-07-20T09:27:30.189Z,2.73
2018-07-20T09:29:58.262Z,3.47
2018-07-20T09:32:26.349Z,3.73
2018-07-20T09:34:54.822Z,1.97
2018-07-20T09:37:22.891Z,1.83
2018-07-20T09:39:50.963Z,3.93
2018-07-20T09:42:19.122Z,1.23
2018-07-20T09:44:47.238Z,4.00
2018-07-20T09:47:15.605Z,2.73
2018-07-20T09:49:43.702Z,2.07
2018-07-20T09:52:11.758Z,3.90
2018-07-20T09:54:39.859Z,2.57
2018-07-20T09:57:07.975Z,1.40
2018-07-20T09:59:36.148Z,1.97
2018-07-20T10:02:04.155Z,3.93
2018-07-20T10:04:32.227Z,4.67
2018-07-20T10:07:00.312Z,2.60
2018-07-20T10:09:29.294Z,1.47
2018-07-20T10:11:57.383Z,3.37
2018-07-20T10:14:25.457Z,3.07
2018-07-20T10:16:53.511Z,2.00
2018-07-20T10:19:21.625Z,1.30
2018-07-20T10:21:49.796Z,0.93
2018-07-20T10:24:18.135Z,2.07
2018-07-20T10:26:46.485Z,2.07
2018-07-20T10:29:14.563Z,1.73
2018-07-20T10:31:42.626Z,1.67
2018-07-20T10:34:10.691Z,1.83
2018-07-20T10:36:38.768Z,2.80
2018-07-20T10:39:08.383Z,1.17
2018-07-20T10:41:36.615Z,2.87
2018-07-20T10:44:04.703Z,1.03
2018-07-20T10:46:33.023Z,1.17
2018-07-20T10:49:01.307Z,1.77
2018-07-20T10:51:29.507Z,2.37
2018-07-20T10:53:57.586Z,3.47
2018-07-20T10:56:25.665Z,1.10
2018-07-20T10:58:54.483Z,2.17
2018-07-20T11:01:22.584Z,1.20
2018-07-20T11:03:50.663Z,1.87
2018-07-20T11:06:18.931Z,1.20
2018-07-20T11:08:46.915Z,1.47
2018-07-20T11:11:15.236Z,1.30
2018-07-20T11:13:43.370Z,1.33
2018-07-20T11:16:11.436Z,2.60
2018-07-20T11:18:39.522Z,1.07
2018-07-20T11:21:07.623Z,1.97
2018-07-20T11:23:35.688Z,4.00
2018-07-20T11:26:03.750Z,5.60
2018-07-20T11:28:31.818Z,8.63
2018-07-20T11:30:59.914Z,13.30
2018-07-20T11:33:27.986Z,6.57
2018-07-20T11:35:56.059Z,3.53
2018-07-20T11:38:24.127Z,9.23
2018-07-20T11:40:52.230Z,7.23
2018-07-20T11:43:20.414Z,9.57
2018-07-20T11:45:48.487Z,7.83
2018-07-20T11:48:16.591Z,7.93
2018-07-20T11:50:44.666Z,6.90
2018-07-20T11:53:12.963Z,3.87
2018-07-20T11:55:41.040Z,5.40
2018-07-20T11:58:09.142Z,8.10
2018-07-20T12:00:37.398Z,5.97
2018-07-20T12:03:05.530Z,14.57
2018-07-20T12:05:33.602Z,20.80
2018-07-20T12:08:01.679Z,11.40
2018-07-20T12:10:30.078Z,10.27
2018-07-20T12:12:58.159Z,17.40
2018-07-20T12:15:26.262Z,6.33
2018-07-20T12:17:54.560Z,5.20
2018-07-20T12:20:22.663Z,8.77
2018-07-20T12:22:50.751Z,5.30
2018-07-20T12:25:18.831Z,4.60
2018-07-20T12:27:46.919Z,2.47
2018-07-20T12:30:15.028Z,9.03
2018-07-20T12:32:43.115Z,6.47
2018-07-20T12:35:11.231Z,6.23
2018-07-20T12:37:39.310Z,4.23
2018-07-20T12:40:07.388Z,6.77
2018-07-20T12:42:35.935Z,4.70
2018-07-20T12:45:03.995Z,5.80
2018-07-20T12:47:32.059Z,6.63
2018-07-20T12:50:00.134Z,6.97
2018-07-20T12:52:28.215Z,4.90
2018-07-20T12:54:56.527Z,12.37
2018-07-20T12:57:24.613Z,8.67
2018-07-20T12:59:52.714Z,10.10
2018-07-20T13:02:20.817Z,7.90
2018-07-20T13:04:48.983Z,7.53
2018-07-20T13:07:17.078Z,11.27
2018-07-20T13:09:45.228Z,11.87
2018-07-20T13:12:13.345Z,10.37
2018-07-20T13:14:41.386Z,12.60
2018-07-20T13:17:09.490Z,16.87
2018-07-20T13:19:37.542Z,6.80
2018-07-20T13:22:06.287Z,6.77
2018-07-20T13:24:34.376Z,9.53
2018-07-20T13:27:02.815Z,8.80
2018-07-20T13:29:30.890Z,5.27
2018-07-20T13:31:58.995Z,4.93
2018-07-20T13:34:27.062Z,6.23
2018-07-20T13:36:55.147Z,5.87
2018-07-20T13:39:23.256Z,5.90
2018-07-20T13:41:51.358Z,7.13
2018-07-20T13:44:19.423Z,4.80
2018-07-20T13:46:47.955Z,10.10
2018-07-20T13:49:16.091Z,6.77
2018-07-20T13:51:44.166Z,7.37
2018-07-20T13:54:12.234Z,9.28
2018-07-20T13:56:40.698Z,10.27
2018-07-20T13:59:08.781Z,4.47
2018-07-20T14:01:36.862Z,6.10
2018-07-20T14:04:05.113Z,11.80
2018-07-20T14:06:33.499Z,6.00
2018-07-20T14:09:01.570Z,9.23
2018-07-20T14:11:30.245Z,9.07
2018-07-20T14:13:58.284Z,6.20
2018-07-20T14:16:26.350Z,3.70
2018-07-20T14:18:54.447Z,6.57
2018-07-20T14:21:22.542Z,4.37
2018-07-20T14:23:50.619Z,3.17
2018-07-20T14:26:18.746Z,9.67
2018-07-20T14:28:46.806Z,6.30
2018-07-20T14:31:14.818Z,4.40
2018-07-20T14:33:42.894Z,6.87
2018-07-20T14:36:10.991Z,4.43
2018-07-20T14:38:39.062Z,7.60
2018-07-20T14:41:07.130Z,5.63
2018-07-20T14:43:35.274Z,3.57
2018-07-20T14:46:03.607Z,4.67
2018-07-20T14:48:31.718Z,3.07
2018-07-20T14:50:59.848Z,4.40
2018-07-20T14:53:27.961Z,4.50
2018-07-20T14:55:56.075Z,7.07
2018-07-20T14:58:24.205Z,4.53
2018-07-20T15:00:52.258Z,3.50
2018-07-20T15:03:20.359Z,6.23
2018-07-20T15:05:48.446Z,3.10
2018-07-20T15:08:16.588Z,3.00
2018-07-20T15:10:44.675Z,3.43
2018-07-20T15:13:12.785Z,3.90
2018-07-20T15:15:40.843Z,2.97
2018-07-20T15:18:08.944Z,2.83
2018-07-20T15:20:37.039Z,3.93
2018-07-20T15:23:05.431Z,2.83
2018-07-20T15:25:33.535Z,7.37
2018-07-20T15:28:01.600Z,3.90
2018-07-20T15:30:29.690Z,7.47
2018-07-20T15:32:57.645Z,6.37
2018-07-20T15:35:25.786Z,3.97
2018-07-20T15:37:53.951Z,5.77
2018-07-20T15:40:22.351Z,5.03
2018-07-20T15:42:50.422Z,4.43
2018-07-20T15:45:18.507Z,4.03
2018-07-20T15:47:46.586Z,3.83
2018-07-20T15:50:14.919Z,2.40
2018-07-20T15:53:36.249Z,6.63
2018-07-20T15:55:11.079Z,5.17
2018-07-20T15:57:39.618Z,3.33
2018-07-20T16:00:08.085Z,3.90
2018-07-20T16:02:35.942Z,6.50
2018-07-20T16:05:04.052Z,1.90
2018-07-20T16:07:32.151Z,2.53
2018-07-20T16:10:00.218Z,4.17
2018-07-20T16:12:28.295Z,2.57
2018-07-20T16:14:56.363Z,3.37
2018-07-20T16:17:24.450Z,2.87
2018-07-20T16:19:52.512Z,5.10
2018-07-20T16:22:20.636Z,3.13
2018-07-20T16:24:48.738Z,3.47
2018-07-20T16:27:17.170Z,2.27
2018-07-20T16:29:45.248Z,3.27
2018-07-20T16:32:13.338Z,3.00
2018-07-20T16:34:41.558Z,4.13
2018-07-20T16:37:09.623Z,5.73
2018-07-20T16:39:37.710Z,2.30
2018-07-20T16:42:05.887Z,7.83
2018-07-20T16:44:34.019Z,2.57
2018-07-20T16:47:02.160Z,3.40
2018-07-20T16:49:30.250Z,7.33
2018-07-20T16:51:58.315Z,7.87
2018-07-20T16:54:26.391Z,3.63
2018-07-20T16:56:54.518Z,3.87
2018-07-20T16:59:22.575Z,5.40
2018-07-20T17:01:50.639Z,2.40
2018-07-20T17:04:19.348Z,4.73
2018-07-20T17:06:47.402Z,4.63
2018-07-20T17:09:15.475Z,4.10
2018-07-20T17:11:43.539Z,5.30
2018-07-20T17:14:11.627Z,6.93
2018-07-20T17:16:39.683Z,2.37
2018-07-20T17:19:07.758Z,3.23
2018-07-20T17:21:35.956Z,3.77
2018-07-20T17:24:04.128Z,4.13
2018-07-20T17:26:32.218Z,3.03
2018-07-20T17:29:00.290Z,2.80
2018-07-20T17:31:28.363Z,5.00
2018-07-20T17:33:56.451Z,2.97
2018-07-20T17:36:24.891Z,3.77
2018-07-20T17:38:53.368Z,2.87
2018-07-20T17:41:21.450Z,5.27
2018-07-20T17:43:49.539Z,3.40
2018-07-20T17:46:17.824Z,6.67
2018-07-20T17:48:46.265Z,10.30
2018-07-20T17:51:14.640Z,8.73
2018-07-20T17:53:42.710Z,10.40
2018-07-20T17:56:10.886Z,5.50
2018-07-20T17:58:38.977Z,7.70
2018-07-20T18:01:07.049Z,10.53
2018-07-20T18:03:35.193Z,7.10
2018-07-20T18:06:03.275Z,6.30
2018-07-20T18:08:31.367Z,6.63
2018-07-20T18:10:59.462Z,4.77
2018-07-20T18:13:27.534Z,9.20
2018-07-20T18:15:55.882Z,4.97
2018-07-20T18:18:23.979Z,2.60
2018-07-20T18:20:52.078Z,6.67
2018-07-20T18:23:20.174Z,4.50
2018-07-20T18:25:48.270Z,5.13
2018-07-20T18:28:16.343Z,5.20
2018-07-20T18:30:44.983Z,5.43
2018-07-20T18:33:13.067Z,6.63
2018-07-20T18:35:41.151Z,3.20
2018-07-20T18:38:09.239Z,2.67
2018-07-20T18:40:37.334Z,6.03
2018-07-20T18:43:05.403Z,8.43
2018-07-20T18:45:33.486Z,5.50
2018-07-20T18:48:01.587Z,3.00
2018-07-20T18:50:29.675Z,3.70
2018-07-20T18:52:58.075Z,3.30
2018-07-20T18:55:26.138Z,4.70
2018-07-20T18:57:54.226Z,2.90
2018-07-20T19:00:22.318Z,2.93
2018-07-20T19:02:50.404Z,2.30
2018-07-20T19:05:18.510Z,2.77
2018-07-20T19:07:46.820Z,3.20
2018-07-20T19:10:14.946Z,4.10
2018-07-20T19:12:43.275Z,2.33
2018-07-20T19:15:11.373Z,2.20
2018-07-20T19:17:39.590Z,2.90
2018-07-20T19:20:07.675Z,2.57
2018-07-20T19:22:35.734Z,6.30
2018-07-20T19:25:03.834Z,2.40
2018-07-20T19:27:31.907Z,2.97
2018-07-20T19:29:59.994Z,3.03
2018-07-20T19:32:28.342Z,2.77
2018-07-20T19:34:56.726Z,3.83
2018-07-20T19:37:24.790Z,2.73
2018-07-20T19:39:52.866Z,3.30
2018-07-20T19:42:20.954Z,3.30
2018-07-20T19:44:49.025Z,2.97
2018-07-20T19:47:17.087Z,2.33
2018-07-20T19:49:45.160Z,2.67
2018-07-20T19:52:13.082Z,2.83
2018-07-20T19:54:41.158Z,3.00
2018-07-20T19:57:09.283Z,2.60
2018-07-20T19:59:37.355Z,2.50
2018-07-20T20:02:05.622Z,2.23
2018-07-20T20:04:33.974Z,2.37
2018-07-20T20:07:02.100Z,2.47
2018-07-20T20:09:30.167Z,2.13
2018-07-20T20:11:58.248Z,2.40
2018-07-20T20:14:26.310Z,2.87
2018-07-20T20:16:54.378Z,3.33
2018-07-20T20:19:22.791Z,1.87
2018-07-20T20:21:50.863Z,2.53
2018-07-20T20:24:19.129Z,2.73
2018-07-20T20:26:47.298Z,3.20
2018-07-20T20:29:15.650Z,2.47
2018-07-20T20:31:43.727Z,2.40
2018-07-20T20:34:11.799Z,2.20
2018-07-20T20:36:39.944Z,2.30
2018-07-20T20:39:09.799Z,2.93
2018-07-20T20:41:38.102Z,2.37
2018-07-20T20:44:06.058Z,2.23
2018-07-20T20:46:34.163Z,2.70
2018-07-20T20:49:02.244Z,2.23
2018-07-20T20:51:30.314Z,2.40
2018-07-20T20:53:58.387Z,2.60
2018-07-20T20:56:26.478Z,2.70
2018-07-20T20:58:54.626Z,2.77
2018-07-20T21:01:22.697Z,2.60
2018-07-20T21:03:50.794Z,2.37
2018-07-20T21:06:19.290Z,2.97
2018-07-20T21:08:47.567Z,1.97
2018-07-20T21:11:15.638Z,2.30
2018-07-20T21:13:43.735Z,2.43
2018-07-20T21:16:11.819Z,2.47
2018-07-20T21:18:39.878Z,2.53
2018-07-20T21:21:07.970Z,2.17
2018-07-20T21:23:36.050Z,2.60
2018-07-20T21:26:04.182Z,3.43
2018-07-20T21:28:32.299Z,2.87
2018-07-20T21:31:00.403Z,2.00
2018-07-20T21:33:28.760Z,2.30
2018-07-20T21:35:56.846Z,4.27
2018-07-20T21:38:24.938Z,6.97
2018-07-20T21:40:53.015Z,4.97
2018-07-20T21:43:21.098Z,9.43
2018-07-20T21:45:49.447Z,3.00
2018-07-20T21:48:17.570Z,3.97
2018-07-20T21:50:45.684Z,6.17
2018-07-20T21:53:14.090Z,2.33
2018-07-20T21:55:42.234Z,3.93
2018-07-20T21:58:10.286Z,5.10
2018-07-20T22:00:38.367Z,3.27
2018-07-20T22:03:06.471Z,3.23
2018-07-20T22:05:34.540Z,2.17
2018-07-20T22:08:02.610Z,7.23
2018-07-20T22:10:30.690Z,5.13
2018-07-20T22:12:58.889Z,2.53
2018-07-20T22:15:26.958Z,1.63
2018-07-20T22:17:55.302Z,4.60
2018-07-20T22:20:23.379Z,4.17
2018-07-20T22:22:51.306Z,5.03
2018-07-20T22:25:19.401Z,2.93
2018-07-20T22:27:47.465Z,8.03
2018-07-20T22:30:15.811Z,4.37
2018-07-20T22:32:43.880Z,9.20
2018-07-20T22:35:12.021Z,7.13
2018-07-20T22:37:40.110Z,5.23
2018-07-20T22:40:08.330Z,2.40
2018-07-20T22:42:36.439Z,4.27
2018-07-20T22:45:04.531Z,3.63
2018-07-20T22:47:32.678Z,3.77
2018-07-20T22:50:00.735Z,5.67
2018-07-20T22:52:28.798Z,2.20
2018-07-20T22:54:56.910Z,2.23
2018-07-20T22:57:25.301Z,4.83
2018-07-20T22:59:53.350Z,5.93
2018-07-20T23:02:21.456Z,4.50
2018-07-20T23:04:49.518Z,2.67
2018-07-20T23:07:17.599Z,3.23
2018-07-20T23:09:45.667Z,4.03
2018-07-20T23:12:13.758Z,4.03
2018-07-20T23:14:41.835Z,3.23
2018-07-20T23:17:09.794Z,3.63
2018-07-20T23:19:38.182Z,2.80
2018-07-20T23:22:06.427Z,6.23
2018-07-20T23:24:34.523Z,3.37
2018-07-20T23:27:02.917Z,4.53
2018-07-20T23:29:31.020Z,3.20
2018-07-20T23:31:59.074Z,2.90
2018-07-20T23:34:27.141Z,4.37
2018-07-20T23:36:55.225Z,2.33
2018-07-20T23:39:23.334Z,6.40
2018-07-20T23:41:51.643Z,2.90
2018-07-20T23:44:19.827Z,2.77
2018-07-20T23:46:47.890Z,3.77
2018-07-20T23:49:16.063Z,5.77
2018-07-20T23:51:44.150Z,3.00
2018-07-20T23:54:12.251Z,3.63
2018-07-20T23:56:40.356Z,2.30
2018-07-20T23:59:08.415Z,2.70
